sensor_id;sensor_type;location;lat;lon;timestamp;temperature;humidity
3360;DHT22;1693;49.602;11.046;2023-10-09T00:02:24;11.20;99.90
3360;DHT22;1693;49.602;11.046;2023-10-09T00:04:51;11.20;99.90
3360;DHT22;1693;49.602;11.046;2023-10-09T00:07:18;11.30;99.90
3360;DHT22;1693;49.602;11.046;2023-10-09T00:09:49;11.30;99.90
3360;DHT22;1693;49.602;11.046;2023-10-09T00:12:19;11.30;99.90
3360;DHT22;1693;49.602;11.046;2023-10-09T00:14:49;11.30;99.90
3360;DHT22;1693;49.602;11.046;2023-10-09T00:17:21;11.30;99.90
3360;DHT22;1693;49.602;11.046;2023-10-09T00:19:49;11.30;99.90
3360;DHT22;1693;49.602;11.046;2023-10-09T00:22:17;11.30;99.90
3360;DHT22;1693;49.602;11.046;2023-10-09T00:24:54;11.30;99.90
3360;DHT22;1693;49.602;11.046;2023-10-09T00:27:47;11.40;99.90
3360;DHT22;1693;49.602;11.046;2023-10-09T00:30:15;11.40;99.90
3360;DHT22;1693;49.602;11.046;2023-10-09T00:32:43;11.40;99.90
3360;DHT22;1693;49.602;11.046;2023-10-09T00:35:18;11.40;99.90
3360;DHT22;1693;49.602;11.046;2023-10-09T00:38:12;11.40;99.90
3360;DHT22;1693;49.602;11.046;2023-10-09T00:40:50;11.60;99.90
3360;DHT22;1693;49.602;11.046;2023-10-09T00:43:30;11.50;99.90
3360;DHT22;1693;49.602;11.046;2023-10-09T00:45:59;11.60;99.90
3360;DHT22;1693;49.602;11.046;2023-10-09T00:48:35;11.60;99.90
3360;DHT22;1693;49.602;11.046;2023-10-09T00:51:05;11.60;99.90
3360;DHT22;1693;49.602;11.046;2023-10-09T00:53:43;11.60;99.90
3360;DHT22;1693;49.602;11.046;2023-10-09T00:56:10;11.60;99.90
3360;DHT22;1693;49.602;11.046;2023-10-09T00:58:44;11.70;99.90
3360;DHT22;1693;49.602;11.046;2023-10-09T01:01:12;11.60;99.90
3360;DHT22;1693;49.602;11.046;2023-10-09T01:03:41;11.60;99.90
3360;DHT22;1693;49.602;11.046;2023-10-09T01:06:11;11.60;99.90
3360;DHT22;1693;49.602;11.046;2023-10-09T01:08:47;11.70;99.90
3360;DHT22;1693;49.602;11.046;2023-10-09T01:11:34;11.70;99.90
3360;DHT22;1693;49.602;11.046;2023-10-09T01:14:14;11.70;99.90
3360;DHT22;1693;49.602;11.046;2023-10-09T01:16:42;11.70;99.90
3360;DHT22;1693;49.602;11.046;2023-10-09T01:19:11;11.70;99.90
3360;DHT22;1693;49.602;11.046;2023-10-09T01:21:49;11.80;99.90
3360;DHT22;1693;49.602;11.046;2023-10-09T01:24:18;11.80;99.90
3360;DHT22;1693;49.602;11.046;2023-10-09T01:26:47;11.80;99.90
3360;DHT22;1693;49.602;11.046;2023-10-09T01:29:16;11.80;99.90
3360;DHT22;1693;49.602;11.046;2023-10-09T01:31:48;11.80;99.90
3360;DHT22;1693;49.602;11.046;2023-10-09T01:34:22;11.90;99.90
3360;DHT22;1693;49.602;11.046;2023-10-09T01:37:04;12.00;99.90
3360;DHT22;1693;49.602;11.046;2023-10-09T01:39:38;12.00;99.90
3360;DHT22;1693;49.602;11.046;2023-10-09T01:42:08;11.90;99.90
3360;DHT22;1693;49.602;11.046;2023-10-09T01:44:36;11.90;99.90
3360;DHT22;1693;49.602;11.046;2023-10-09T01:47:14;11.90;99.90
3360;DHT22;1693;49.602;11.046;2023-10-09T01:49:44;11.90;99.90
3360;DHT22;1693;49.602;11.046;2023-10-09T01:52:15;11.90;99.90
3360;DHT22;1693;49.602;11.046;2023-10-09T01:54:49;12.00;99.90
3360;DHT22;1693;49.602;11.046;2023-10-09T01:57:19;12.10;99.90
3360;DHT22;1693;49.602;11.046;2023-10-09T01:59:49;12.00;99.90
3360;DHT22;1693;49.602;11.046;2023-10-09T02:02:19;12.00;99.90
3360;DHT22;1693;49.602;11.046;2023-10-09T02:04:57;12.00;99.90
3360;DHT22;1693;49.602;11.046;2023-10-09T02:07:34;12.10;99.90
3360;DHT22;1693;49.602;11.046;2023-10-09T02:10:11;12.10;99.90
3360;DHT22;1693;49.602;11.046;2023-10-09T02:12:47;12.10;99.90
3360;DHT22;1693;49.602;11.046;2023-10-09T02:15:19;12.20;99.90
3360;DHT22;1693;49.602;11.046;2023-10-09T02:18:07;12.20;99.90
3360;DHT22;1693;49.602;11.046;2023-10-09T02:20:44;12.10;99.90
3360;DHT22;1693;49.602;11.046;2023-10-09T02:23:12;12.20;99.90
3360;DHT22;1693;49.602;11.046;2023-10-09T02:25:41;12.20;99.90
3360;DHT22;1693;49.602;11.046;2023-10-09T02:28:09;12.30;99.90
3360;DHT22;1693;49.602;11.046;2023-10-09T02:30:43;12.30;99.90
3360;DHT22;1693;49.602;11.046;2023-10-09T02:33:14;12.30;99.90
3360;DHT22;1693;49.602;11.046;2023-10-09T02:35:53;12.40;99.90
3360;DHT22;1693;49.602;11.046;2023-10-09T02:38:20;12.30;99.90
3360;DHT22;1693;49.602;11.046;2023-10-09T02:40:51;12.30;99.90
3360;DHT22;1693;49.602;11.046;2023-10-09T02:43:44;12.20;99.90
3360;DHT22;1693;49.602;11.046;2023-10-09T02:46:12;12.10;99.90
3360;DHT22;1693;49.602;11.046;2023-10-09T02:48:43;12.00;99.90
3360;DHT22;1693;49.602;11.046;2023-10-09T02:51:14;12.00;99.90
3360;DHT22;1693;49.602;11.046;2023-10-09T02:53:57;12.00;99.90
3360;DHT22;1693;49.602;11.046;2023-10-09T02:56:26;12.00;99.90
3360;DHT22;1693;49.602;11.046;2023-10-09T02:59:03;12.10;99.90
3360;DHT22;1693;49.602;11.046;2023-10-09T03:01:33;12.10;99.90
3360;DHT22;1693;49.602;11.046;2023-10-09T03:04:04;12.10;99.90
3360;DHT22;1693;49.602;11.046;2023-10-09T03:06:32;12.10;99.90
3360;DHT22;1693;49.602;11.046;2023-10-09T03:09:00;12.00;99.90
3360;DHT22;1693;49.602;11.046;2023-10-09T03:11:44;11.90;99.90
3360;DHT22;1693;49.602;11.046;2023-10-09T03:14:16;12.00;99.90
3360;DHT22;1693;49.602;11.046;2023-10-09T03:16:46;12.00;99.90
3360;DHT22;1693;49.602;11.046;2023-10-09T03:19:14;11.90;99.90
3360;DHT22;1693;49.602;11.046;2023-10-09T03:21:44;11.80;99.90
3360;DHT22;1693;49.602;11.046;2023-10-09T03:24:12;11.80;99.90
3360;DHT22;1693;49.602;11.046;2023-10-09T03:26:43;11.80;99.90
3360;DHT22;1693;49.602;11.046;2023-10-09T03:29:14;11.80;99.90
3360;DHT22;1693;49.602;11.046;2023-10-09T03:31:41;11.80;99.90
3360;DHT22;1693;49.602;11.046;2023-10-09T03:34:09;11.70;99.90
3360;DHT22;1693;49.602;11.046;2023-10-09T03:36:36;11.70;99.90
3360;DHT22;1693;49.602;11.046;2023-10-09T03:39:04;11.70;99.90
3360;DHT22;1693;49.602;11.046;2023-10-09T03:41:45;11.70;99.90
3360;DHT22;1693;49.602;11.046;2023-10-09T03:44:13;11.80;99.90
3360;DHT22;1693;49.602;11.046;2023-10-09T03:46:43;11.80;99.90
3360;DHT22;1693;49.602;11.046;2023-10-09T03:49:11;11.70;99.90
3360;DHT22;1693;49.602;11.046;2023-10-09T03:51:39;11.60;99.90
3360;DHT22;1693;49.602;11.046;2023-10-09T03:54:07;11.60;99.90
3360;DHT22;1693;49.602;11.046;2023-10-09T03:56:35;11.50;99.90
3360;DHT22;1693;49.602;11.046;2023-10-09T03:59:03;11.40;99.90
3360;DHT22;1693;49.602;11.046;2023-10-09T04:01:30;11.30;99.90
3360;DHT22;1693;49.602;11.046;2023-10-09T04:04:05;11.30;99.90
3360;DHT22;1693;49.602;11.046;2023-10-09T04:06:36;11.30;99.90
3360;DHT22;1693;49.602;11.046;2023-10-09T04:09:04;11.20;99.90
3360;DHT22;1693;49.602;11.046;2023-10-09T04:11:53;11.30;99.90
3360;DHT22;1693;49.602;11.046;2023-10-09T04:14:45;11.10;99.90
3360;DHT22;1693;49.602;11.046;2023-10-09T04:17:16;11.00;99.90
3360;DHT22;1693;49.602;11.046;2023-10-09T04:19:57;10.90;99.90
3360;DHT22;1693;49.602;11.046;2023-10-09T04:22:40;10.90;99.90
3360;DHT22;1693;49.602;11.046;2023-10-09T04:25:08;10.90;99.90
3360;DHT22;1693;49.602;11.046;2023-10-09T04:27:41;11.00;99.90
3360;DHT22;1693;49.602;11.046;2023-10-09T04:30:09;11.00;99.90
3360;DHT22;1693;49.602;11.046;2023-10-09T04:32:42;10.80;99.90
3360;DHT22;1693;49.602;11.046;2023-10-09T04:35:11;10.80;99.90
3360;DHT22;1693;49.602;11.046;2023-10-09T04:37:50;10.70;99.90
3360;DHT22;1693;49.602;11.046;2023-10-09T04:40:26;10.70;99.90
3360;DHT22;1693;49.602;11.046;2023-10-09T04:43:06;10.60;99.90
3360;DHT22;1693;49.602;11.046;2023-10-09T04:45:37;10.50;99.90
3360;DHT22;1693;49.602;11.046;2023-10-09T04:48:32;10.50;99.90
3360;DHT22;1693;49.602;11.046;2023-10-09T04:51:05;10.30;99.90
3360;DHT22;1693;49.602;11.046;2023-10-09T04:53:46;10.30;99.90
3360;DHT22;1693;49.602;11.046;2023-10-09T04:56:20;10.30;99.90
3360;DHT22;1693;49.602;11.046;2023-10-09T04:58:50;10.30;99.90
3360;DHT22;1693;49.602;11.046;2023-10-09T05:01:30;10.20;99.90
3360;DHT22;1693;49.602;11.046;2023-10-09T05:04:09;10.30;99.90
3360;DHT22;1693;49.602;11.046;2023-10-09T05:06:55;10.30;99.90
3360;DHT22;1693;49.602;11.046;2023-10-09T05:09:21;10.20;99.90
3360;DHT22;1693;49.602;11.046;2023-10-09T05:11:49;10.20;99.90
3360;DHT22;1693;49.602;11.046;2023-10-09T05:14:33;10.10;99.90
3360;DHT22;1693;49.602;11.046;2023-10-09T05:17:12;10.10;99.90
3360;DHT22;1693;49.602;11.046;2023-10-09T05:19:42;10.20;99.90
3360;DHT22;1693;49.602;11.046;2023-10-09T05:22:20;10.20;99.90
3360;DHT22;1693;49.602;11.046;2023-10-09T05:24:57;10.30;99.90
3360;DHT22;1693;49.602;11.046;2023-10-09T05:27:24;10.20;99.90
3360;DHT22;1693;49.602;11.046;2023-10-09T05:30:06;10.40;99.90
3360;DHT22;1693;49.602;11.046;2023-10-09T05:32:52;10.40;99.90
3360;DHT22;1693;49.602;11.046;2023-10-09T05:35:22;10.30;99.90
3360;DHT22;1693;49.602;11.046;2023-10-09T05:38:06;10.20;99.90
3360;DHT22;1693;49.602;11.046;2023-10-09T05:40:49;10.20;99.90
3360;DHT22;1693;49.602;11.046;2023-10-09T05:43:20;10.20;99.90
3360;DHT22;1693;49.602;11.046;2023-10-09T05:46:05;10.10;99.90
3360;DHT22;1693;49.602;11.046;2023-10-09T05:48:36;10.10;99.90
3360;DHT22;1693;49.602;11.046;2023-10-09T05:51:20;10.20;99.90
3360;DHT22;1693;49.602;11.046;2023-10-09T05:54:01;10.20;99.90
3360;DHT22;1693;49.602;11.046;2023-10-09T05:56:48;10.10;99.90
3360;DHT22;1693;49.602;11.046;2023-10-09T05:59:32;10.10;99.90
3360;DHT22;1693;49.602;11.046;2023-10-09T06:02:16;10.10;99.90
3360;DHT22;1693;49.602;11.046;2023-10-09T06:05:02;10.10;99.90
3360;DHT22;1693;49.602;11.046;2023-10-09T06:07:49;10.20;99.90
3360;DHT22;1693;49.602;11.046;2023-10-09T06:10:30;10.20;99.90
3360;DHT22;1693;49.602;11.046;2023-10-09T06:13:06;10.30;99.90
3360;DHT22;1693;49.602;11.046;2023-10-09T06:15:37;10.30;99.90
3360;DHT22;1693;49.602;11.046;2023-10-09T06:18:35;10.30;99.90
3360;DHT22;1693;49.602;11.046;2023-10-09T06:21:02;10.40;99.90
3360;DHT22;1693;49.602;11.046;2023-10-09T06:23:35;10.50;99.90
3360;DHT22;1693;49.602;11.046;2023-10-09T06:26:25;10.50;99.90
3360;DHT22;1693;49.602;11.046;2023-10-09T06:28:52;10.60;99.90
3360;DHT22;1693;49.602;11.046;2023-10-09T06:31:33;10.70;99.90
3360;DHT22;1693;49.602;11.046;2023-10-09T06:34:23;10.80;99.90
3360;DHT22;1693;49.602;11.046;2023-10-09T06:36:59;10.80;99.90
3360;DHT22;1693;49.602;11.046;2023-10-09T06:39:33;10.90;99.90
3360;DHT22;1693;49.602;11.046;2023-10-09T06:42:29;10.90;99.90
3360;DHT22;1693;49.602;11.046;2023-10-09T06:45:10;11.00;99.90
3360;DHT22;1693;49.602;11.046;2023-10-09T06:47:41;11.10;99.90
3360;DHT22;1693;49.602;11.046;2023-10-09T06:50:09;11.20;99.90
3360;DHT22;1693;49.602;11.046;2023-10-09T06:52:51;11.30;99.90
3360;DHT22;1693;49.602;11.046;2023-10-09T06:55:45;11.40;99.90
3360;DHT22;1693;49.602;11.046;2023-10-09T06:58:14;11.50;99.90
3360;DHT22;1693;49.602;11.046;2023-10-09T07:00:43;11.60;99.90
3360;DHT22;1693;49.602;11.046;2023-10-09T07:03:41;11.70;99.90
3360;DHT22;1693;49.602;11.046;2023-10-09T07:06:22;11.90;99.90
3360;DHT22;1693;49.602;11.046;2023-10-09T07:14:59;12.20;99.90
3360;DHT22;1693;49.602;11.046;2023-10-09T07:17:50;12.40;99.90
3360;DHT22;1693;49.602;11.046;2023-10-09T07:20:18;12.60;99.90
3360;DHT22;1693;49.602;11.046;2023-10-09T07:22:59;12.70;99.90
3360;DHT22;1693;49.602;11.046;2023-10-09T07:25:39;12.90;99.90
3360;DHT22;1693;49.602;11.046;2023-10-09T07:28:22;13.10;99.90
3360;DHT22;1693;49.602;11.046;2023-10-09T07:31:11;13.20;99.90
3360;DHT22;1693;49.602;11.046;2023-10-09T07:33:50;13.40;99.90
3360;DHT22;1693;49.602;11.046;2023-10-09T07:36:22;13.60;99.90
3360;DHT22;1693;49.602;11.046;2023-10-09T07:39:04;13.90;99.90
3360;DHT22;1693;49.602;11.046;2023-10-09T07:41:39;14.10;99.90
3360;DHT22;1693;49.602;11.046;2023-10-09T07:47:05;15.10;99.90
3360;DHT22;1693;49.602;11.046;2023-10-09T07:49:45;15.20;99.90
3360;DHT22;1693;49.602;11.046;2023-10-09T07:52:19;15.40;99.90
3360;DHT22;1693;49.602;11.046;2023-10-09T07:54:49;15.60;99.90
3360;DHT22;1693;49.602;11.046;2023-10-09T08:05:06;16.90;99.90
3360;DHT22;1693;49.602;11.046;2023-10-09T08:07:45;17.10;99.90
3360;DHT22;1693;49.602;11.046;2023-10-09T08:10:24;17.10;99.90
3360;DHT22;1693;49.602;11.046;2023-10-09T08:13:10;17.10;99.90
3360;DHT22;1693;49.602;11.046;2023-10-09T08:16:04;17.10;99.90
3360;DHT22;1693;49.602;11.046;2023-10-09T08:18:42;17.50;99.90
3360;DHT22;1693;49.602;11.046;2023-10-09T08:21:11;17.60;99.90
3360;DHT22;1693;49.602;11.046;2023-10-09T08:24:06;17.20;99.90
3360;DHT22;1693;49.602;11.046;2023-10-09T08:26:53;17.30;99.90
3360;DHT22;1693;49.602;11.046;2023-10-09T08:29:41;17.50;99.90
3360;DHT22;1693;49.602;11.046;2023-10-09T08:32:14;17.10;99.90
3360;DHT22;1693;49.602;11.046;2023-10-09T08:35:05;17.20;99.90
3360;DHT22;1693;49.602;11.046;2023-10-09T08:37:44;17.50;99.90
3360;DHT22;1693;49.602;11.046;2023-10-09T08:40:14;17.80;99.90
3360;DHT22;1693;49.602;11.046;2023-10-09T08:42:48;17.50;99.90
3360;DHT22;1693;49.602;11.046;2023-10-09T08:45:21;17.60;99.90
3360;DHT22;1693;49.602;11.046;2023-10-09T08:47:53;17.80;99.90
3360;DHT22;1693;49.602;11.046;2023-10-09T08:50:20;17.90;99.90
3360;DHT22;1693;49.602;11.046;2023-10-09T08:52:48;18.00;99.90
3360;DHT22;1693;49.602;11.046;2023-10-09T08:55:17;18.00;99.90
3360;DHT22;1693;49.602;11.046;2023-10-09T08:57:45;18.10;99.90
3360;DHT22;1693;49.602;11.046;2023-10-09T09:00:17;17.60;99.90
3360;DHT22;1693;49.602;11.046;2023-10-09T09:02:47;17.70;99.90
3360;DHT22;1693;49.602;11.046;2023-10-09T09:05:19;17.80;99.90
3360;DHT22;1693;49.602;11.046;2023-10-09T09:07:47;17.90;99.90
3360;DHT22;1693;49.602;11.046;2023-10-09T09:10:14;17.80;99.90
3360;DHT22;1693;49.602;11.046;2023-10-09T09:12:47;17.70;99.90
3360;DHT22;1693;49.602;11.046;2023-10-09T09:15:19;17.80;99.90
3360;DHT22;1693;49.602;11.046;2023-10-09T09:17:47;17.90;99.90
3360;DHT22;1693;49.602;11.046;2023-10-09T09:20:24;17.80;99.90
3360;DHT22;1693;49.602;11.046;2023-10-09T09:22:56;17.50;99.90
3360;DHT22;1693;49.602;11.046;2023-10-09T09:25:23;17.40;99.90
3360;DHT22;1693;49.602;11.046;2023-10-09T09:30:38;17.50;99.90
3360;DHT22;1693;49.602;11.046;2023-10-09T09:33:20;17.00;99.90
3360;DHT22;1693;49.602;11.046;2023-10-09T09:36:00;16.70;99.90
3360;DHT22;1693;49.602;11.046;2023-10-09T09:38:30;16.50;99.90
3360;DHT22;1693;49.602;11.046;2023-10-09T09:41:08;16.30;99.90
3360;DHT22;1693;49.602;11.046;2023-10-09T09:43:36;16.00;99.90
3360;DHT22;1693;49.602;11.046;2023-10-09T09:46:07;16.00;99.90
3360;DHT22;1693;49.602;11.046;2023-10-09T09:48:39;15.90;99.90
3360;DHT22;1693;49.602;11.046;2023-10-09T09:51:12;16.10;99.90
3360;DHT22;1693;49.602;11.046;2023-10-09T09:53:41;16.10;99.90
3360;DHT22;1693;49.602;11.046;2023-10-09T09:56:09;16.10;99.90
3360;DHT22;1693;49.602;11.046;2023-10-09T09:58:44;16.10;99.90
3360;DHT22;1693;49.602;11.046;2023-10-09T10:01:13;16.00;99.90
3360;DHT22;1693;49.602;11.046;2023-10-09T10:03:50;16.10;99.90
3360;DHT22;1693;49.602;11.046;2023-10-09T10:06:19;16.40;99.90
3360;DHT22;1693;49.602;11.046;2023-10-09T10:08:48;16.40;99.90
3360;DHT22;1693;49.602;11.046;2023-10-09T10:11:41;16.60;99.90
3360;DHT22;1693;49.602;11.046;2023-10-09T10:14:10;16.60;99.90
3360;DHT22;1693;49.602;11.046;2023-10-09T10:17:06;16.60;99.90
3360;DHT22;1693;49.602;11.046;2023-10-09T10:20:05;16.60;99.90
3360;DHT22;1693;49.602;11.046;2023-10-09T10:23:14;16.70;99.90
3360;DHT22;1693;49.602;11.046;2023-10-09T10:25:43;16.80;99.90
3360;DHT22;1693;49.602;11.046;2023-10-09T10:28:18;17.00;99.90
3360;DHT22;1693;49.602;11.046;2023-10-09T10:30:54;17.00;99.90
3360;DHT22;1693;49.602;11.046;2023-10-09T10:33:24;17.00;99.90
3360;DHT22;1693;49.602;11.046;2023-10-09T10:35:53;16.70;99.90
3360;DHT22;1693;49.602;11.046;2023-10-09T10:38:27;16.70;99.90
3360;DHT22;1693;49.602;11.046;2023-10-09T10:41:14;16.70;99.90
3360;DHT22;1693;49.602;11.046;2023-10-09T10:43:43;16.70;99.90
3360;DHT22;1693;49.602;11.046;2023-10-09T10:46:26;16.70;99.90
3360;DHT22;1693;49.602;11.046;2023-10-09T10:49:10;16.80;99.90
3360;DHT22;1693;49.602;11.046;2023-10-09T10:51:46;16.80;99.90
3360;DHT22;1693;49.602;11.046;2023-10-09T10:54:22;16.90;99.90
3360;DHT22;1693;49.602;11.046;2023-10-09T10:57:20;16.80;99.90
3360;DHT22;1693;49.602;11.046;2023-10-09T10:59:56;16.70;99.90
3360;DHT22;1693;49.602;11.046;2023-10-09T11:02:43;16.80;99.90
3360;DHT22;1693;49.602;11.046;2023-10-09T11:05:13;17.00;99.90
3360;DHT22;1693;49.602;11.046;2023-10-09T11:07:50;17.10;99.90
3360;DHT22;1693;49.602;11.046;2023-10-09T11:10:23;17.30;99.90
3360;DHT22;1693;49.602;11.046;2023-10-09T11:12:57;17.50;99.90
3360;DHT22;1693;49.602;11.046;2023-10-09T11:15:40;17.80;99.90
3360;DHT22;1693;49.602;11.046;2023-10-09T11:18:22;17.80;99.90
3360;DHT22;1693;49.602;11.046;2023-10-09T11:20:52;18.00;99.90
3360;DHT22;1693;49.602;11.046;2023-10-09T11:23:46;17.90;99.90
3360;DHT22;1693;49.602;11.046;2023-10-09T11:26:26;17.90;99.90
3360;DHT22;1693;49.602;11.046;2023-10-09T11:29:10;17.90;99.90
3360;DHT22;1693;49.602;11.046;2023-10-09T11:32:14;17.60;99.90
3360;DHT22;1693;49.602;11.046;2023-10-09T11:38:23;17.90;99.90
3360;DHT22;1693;49.602;11.046;2023-10-09T11:40:51;18.10;99.90
3360;DHT22;1693;49.602;11.046;2023-10-09T11:43:47;18.00;99.90
3360;DHT22;1693;49.602;11.046;2023-10-09T11:46:23;18.20;99.90
3360;DHT22;1693;49.602;11.046;2023-10-09T11:49:05;18.30;99.90
3360;DHT22;1693;49.602;11.046;2023-10-09T11:51:50;18.70;99.90
3360;DHT22;1693;49.602;11.046;2023-10-09T11:54:31;18.70;99.90
3360;DHT22;1693;49.602;11.046;2023-10-09T11:56:58;18.60;99.90
3360;DHT22;1693;49.602;11.046;2023-10-09T11:59:28;18.50;99.90
3360;DHT22;1693;49.602;11.046;2023-10-09T12:02:00;18.30;99.90
3360;DHT22;1693;49.602;11.046;2023-10-09T12:04:29;18.20;99.90
3360;DHT22;1693;49.602;11.046;2023-10-09T12:06:56;18.30;99.90
3360;DHT22;1693;49.602;11.046;2023-10-09T12:09:32;18.20;99.90
3360;DHT22;1693;49.602;11.046;2023-10-09T12:12:00;18.20;99.90
3360;DHT22;1693;49.602;11.046;2023-10-09T12:14:28;18.20;99.90
3360;DHT22;1693;49.602;11.046;2023-10-09T12:16:59;18.40;99.90
3360;DHT22;1693;49.602;11.046;2023-10-09T12:19:32;18.50;99.90
3360;DHT22;1693;49.602;11.046;2023-10-09T12:21:59;18.60;99.90
3360;DHT22;1693;49.602;11.046;2023-10-09T12:24:27;18.40;99.90
3360;DHT22;1693;49.602;11.046;2023-10-09T12:26:55;18.50;99.90
3360;DHT22;1693;49.602;11.046;2023-10-09T12:29:23;18.40;99.90
3360;DHT22;1693;49.602;11.046;2023-10-09T12:31:56;18.60;99.90
3360;DHT22;1693;49.602;11.046;2023-10-09T12:34:25;18.90;99.90
3360;DHT22;1693;49.602;11.046;2023-10-09T12:36:53;19.10;99.90
3360;DHT22;1693;49.602;11.046;2023-10-09T12:39:20;19.30;99.90
3360;DHT22;1693;49.602;11.046;2023-10-09T12:41:48;19.40;99.90
3360;DHT22;1693;49.602;11.046;2023-10-09T12:44:19;19.50;99.90
3360;DHT22;1693;49.602;11.046;2023-10-09T12:46:46;19.70;99.90
3360;DHT22;1693;49.602;11.046;2023-10-09T12:49:22;19.80;99.90
3360;DHT22;1693;49.602;11.046;2023-10-09T12:51:54;20.00;99.90
3360;DHT22;1693;49.602;11.046;2023-10-09T12:54:22;20.00;99.90
3360;DHT22;1693;49.602;11.046;2023-10-09T12:56:52;20.00;99.90
3360;DHT22;1693;49.602;11.046;2023-10-09T12:59:19;20.00;99.90
3360;DHT22;1693;49.602;11.046;2023-10-09T13:01:47;19.90;99.90
3360;DHT22;1693;49.602;11.046;2023-10-09T13:04:32;19.90;99.90
3360;DHT22;1693;49.602;11.046;2023-10-09T13:07:02;19.90;99.90
3360;DHT22;1693;49.602;11.046;2023-10-09T13:09:45;20.00;99.90
3360;DHT22;1693;49.602;11.046;2023-10-09T13:12:32;19.90;99.90
3360;DHT22;1693;49.602;11.046;2023-10-09T13:14:59;19.90;99.90
3360;DHT22;1693;49.602;11.046;2023-10-09T13:17:25;19.90;99.90
3360;DHT22;1693;49.602;11.046;2023-10-09T13:19:55;20.00;99.90
3360;DHT22;1693;49.602;11.046;2023-10-09T13:22:22;20.10;99.90
3360;DHT22;1693;49.602;11.046;2023-10-09T13:24:50;20.30;99.90
3360;DHT22;1693;49.602;11.046;2023-10-09T13:27:29;20.40;99.90
3360;DHT22;1693;49.602;11.046;2023-10-09T13:29:59;20.40;99.90
3360;DHT22;1693;49.602;11.046;2023-10-09T13:32:31;20.40;99.90
3360;DHT22;1693;49.602;11.046;2023-10-09T13:35:03;20.40;99.90
3360;DHT22;1693;49.602;11.046;2023-10-09T13:37:31;20.30;99.90
3360;DHT22;1693;49.602;11.046;2023-10-09T13:40:02;20.50;99.90
3360;DHT22;1693;49.602;11.046;2023-10-09T13:42:35;20.50;99.90
3360;DHT22;1693;49.602;11.046;2023-10-09T13:45:03;20.50;99.90
3360;DHT22;1693;49.602;11.046;2023-10-09T13:47:41;20.50;99.90
3360;DHT22;1693;49.602;11.046;2023-10-09T13:50:11;20.50;99.90
3360;DHT22;1693;49.602;11.046;2023-10-09T13:52:39;20.50;99.90
3360;DHT22;1693;49.602;11.046;2023-10-09T13:55:06;20.50;99.90
3360;DHT22;1693;49.602;11.046;2023-10-09T13:57:41;20.60;99.90
3360;DHT22;1693;49.602;11.046;2023-10-09T14:00:12;20.70;99.90
3360;DHT22;1693;49.602;11.046;2023-10-09T14:02:43;20.60;99.90
3360;DHT22;1693;49.602;11.046;2023-10-09T14:05:13;20.60;99.90
3360;DHT22;1693;49.602;11.046;2023-10-09T14:07:40;20.50;99.90
3360;DHT22;1693;49.602;11.046;2023-10-09T14:10:07;20.40;99.90
3360;DHT22;1693;49.602;11.046;2023-10-09T14:12:43;20.60;99.90
3360;DHT22;1693;49.602;11.046;2023-10-09T14:15:10;20.40;99.90
3360;DHT22;1693;49.602;11.046;2023-10-09T14:17:42;20.50;99.90
3360;DHT22;1693;49.602;11.046;2023-10-09T14:20:13;20.60;99.90
3360;DHT22;1693;49.602;11.046;2023-10-09T14:22:56;20.70;99.90
3360;DHT22;1693;49.602;11.046;2023-10-09T14:25:23;20.70;99.90
3360;DHT22;1693;49.602;11.046;2023-10-09T14:27:49;20.80;99.90
3360;DHT22;1693;49.602;11.046;2023-10-09T14:30:18;20.70;99.90
3360;DHT22;1693;49.602;11.046;2023-10-09T14:32:56;20.50;99.90
3360;DHT22;1693;49.602;11.046;2023-10-09T14:35:25;20.20;99.90
3360;DHT22;1693;49.602;11.046;2023-10-09T14:37:52;19.90;99.90
3360;DHT22;1693;49.602;11.046;2023-10-09T14:40:20;19.90;99.90
3360;DHT22;1693;49.602;11.046;2023-10-09T14:42:55;19.80;99.90
3360;DHT22;1693;49.602;11.046;2023-10-09T14:45:23;19.40;99.90
3360;DHT22;1693;49.602;11.046;2023-10-09T14:47:52;19.20;99.90
3360;DHT22;1693;49.602;11.046;2023-10-09T14:50:20;19.20;99.90
3360;DHT22;1693;49.602;11.046;2023-10-09T14:52:50;19.20;99.90
3360;DHT22;1693;49.602;11.046;2023-10-09T14:55:17;19.10;99.90
3360;DHT22;1693;49.602;11.046;2023-10-09T14:57:47;19.20;99.90
3360;DHT22;1693;49.602;11.046;2023-10-09T15:00:16;19.20;99.90
3360;DHT22;1693;49.602;11.046;2023-10-09T15:02:49;19.10;99.90
3360;DHT22;1693;49.602;11.046;2023-10-09T15:05:17;19.10;99.90
3360;DHT22;1693;49.602;11.046;2023-10-09T15:07:44;19.10;99.90
3360;DHT22;1693;49.602;11.046;2023-10-09T15:10:12;19.00;99.90
3360;DHT22;1693;49.602;11.046;2023-10-09T15:12:41;18.90;99.90
3360;DHT22;1693;49.602;11.046;2023-10-09T15:15:12;19.10;99.90
3360;DHT22;1693;49.602;11.046;2023-10-09T15:17:40;19.00;99.90
3360;DHT22;1693;49.602;11.046;2023-10-09T15:20:11;19.00;99.90
3360;DHT22;1693;49.602;11.046;2023-10-09T15:22:40;18.90;99.90
3360;DHT22;1693;49.602;11.046;2023-10-09T15:25:08;18.80;99.90
3360;DHT22;1693;49.602;11.046;2023-10-09T15:27:36;18.80;99.90
3360;DHT22;1693;49.602;11.046;2023-10-09T15:30:06;18.80;99.90
3360;DHT22;1693;49.602;11.046;2023-10-09T15:32:33;18.70;99.90
3360;DHT22;1693;49.602;11.046;2023-10-09T15:35:01;18.50;99.90
3360;DHT22;1693;49.602;11.046;2023-10-09T15:37:29;18.60;99.90
3360;DHT22;1693;49.602;11.046;2023-10-09T15:39:58;18.50;99.90
3360;DHT22;1693;49.602;11.046;2023-10-09T15:42:30;18.40;99.90
3360;DHT22;1693;49.602;11.046;2023-10-09T15:45:00;18.40;99.90
3360;DHT22;1693;49.602;11.046;2023-10-09T15:47:27;18.20;99.90
3360;DHT22;1693;49.602;11.046;2023-10-09T15:49:54;17.80;99.90
3360;DHT22;1693;49.602;11.046;2023-10-09T15:52:21;17.60;99.90
3360;DHT22;1693;49.602;11.046;2023-10-09T15:54:52;17.50;99.90
3360;DHT22;1693;49.602;11.046;2023-10-09T15:57:20;17.40;99.90
3360;DHT22;1693;49.602;11.046;2023-10-09T15:59:47;17.20;99.90
3360;DHT22;1693;49.602;11.046;2023-10-09T16:02:17;17.10;99.90
3360;DHT22;1693;49.602;11.046;2023-10-09T16:04:46;16.90;99.90
3360;DHT22;1693;49.602;11.046;2023-10-09T16:07:13;16.90;99.90
3360;DHT22;1693;49.602;11.046;2023-10-09T16:09:41;16.70;99.90
3360;DHT22;1693;49.602;11.046;2023-10-09T16:12:08;16.60;99.90
3360;DHT22;1693;49.602;11.046;2023-10-09T16:14:36;16.60;99.90
3360;DHT22;1693;49.602;11.046;2023-10-09T16:17:02;16.50;99.90
3360;DHT22;1693;49.602;11.046;2023-10-09T16:19:33;16.40;99.90
3360;DHT22;1693;49.602;11.046;2023-10-09T16:22:02;16.30;99.90
3360;DHT22;1693;49.602;11.046;2023-10-09T16:24:30;16.30;99.90
3360;DHT22;1693;49.602;11.046;2023-10-09T16:26:58;16.20;99.90
3360;DHT22;1693;49.602;11.046;2023-10-09T16:29:25;16.10;99.90
3360;DHT22;1693;49.602;11.046;2023-10-09T16:31:53;16.10;99.90
3360;DHT22;1693;49.602;11.046;2023-10-09T16:34:21;16.10;99.90
3360;DHT22;1693;49.602;11.046;2023-10-09T16:36:52;16.00;99.90
3360;DHT22;1693;49.602;11.046;2023-10-09T16:39:20;15.90;99.90
3360;DHT22;1693;49.602;11.046;2023-10-09T16:41:48;15.80;99.90
3360;DHT22;1693;49.602;11.046;2023-10-09T16:44:15;15.80;99.90
3360;DHT22;1693;49.602;11.046;2023-10-09T16:46:44;15.70;99.90
3360;DHT22;1693;49.602;11.046;2023-10-09T16:49:12;15.70;99.90
3360;DHT22;1693;49.602;11.046;2023-10-09T16:51:39;15.60;99.90